sensor_id;sensor_type;location;lat;lon;timestamp;P1;durP1;ratioP1;P2;durP2;ratioP2
31073;SDS011;17730;53.552;9.940;2022-10-16T00:01:12;14.00;;;8.48;;
31073;SDS011;17730;53.552;9.940;2022-10-16T00:03:39;15.40;;;8.70;;
31073;SDS011;17730;53.552;9.940;2022-10-16T00:06:06;12.45;;;7.70;;
31073;SDS011;17730;53.552;9.940;2022-10-16T00:08:32;12.38;;;7.47;;
31073;SDS011;17730;53.552;9.940;2022-10-16T00:11:09;13.52;;;7.22;;
31073;SDS011;17730;53.552;9.940;2022-10-16T00:13:42;12.10;;;7.40;;
31073;SDS011;17730;53.552;9.940;2022-10-16T00:16:11;14.05;;;6.93;;
31073;SDS011;17730;53.552;9.940;2022-10-16T00:18:38;15.63;;;5.80;;
31073;SDS011;17730;53.552;9.940;2022-10-16T00:21:16;11.40;;;5.93;;
31073;SDS011;17730;53.552;9.940;2022-10-16T00:23:44;9.20;;;5.43;;
31073;SDS011;17730;53.552;9.940;2022-10-16T00:26:12;13.15;;;4.80;;
31073;SDS011;17730;53.552;9.940;2022-10-16T00:28:39;8.15;;;3.97;;
31073;SDS011;17730;53.552;9.940;2022-10-16T00:31:06;8.90;;;4.05;;
31073;SDS011;17730;53.552;9.940;2022-10-16T00:33:33;8.13;;;3.40;;
31073;SDS011;17730;53.552;9.940;2022-10-16T00:36:00;9.10;;;4.07;;
31073;SDS011;17730;53.552;9.940;2022-10-16T00:38:26;7.35;;;3.67;;
31073;SDS011;17730;53.552;9.940;2022-10-16T00:40:52;13.68;;;3.97;;
31073;SDS011;17730;53.552;9.940;2022-10-16T00:48:50;8.77;;;4.32;;
31073;SDS011;17730;53.552;9.940;2022-10-16T00:51:23;7.95;;;4.00;;
31073;SDS011;17730;53.552;9.940;2022-10-16T00:53:53;11.63;;;3.92;;
31073;SDS011;17730;53.552;9.940;2022-10-16T00:56:19;11.80;;;3.90;;
31073;SDS011;17730;53.552;9.940;2022-10-16T00:58:45;8.82;;;3.25;;
31073;SDS011;17730;53.552;9.940;2022-10-16T01:01:11;8.32;;;3.45;;
31073;SDS011;17730;53.552;9.940;2022-10-16T01:03:37;7.10;;;3.78;;
31073;SDS011;17730;53.552;9.940;2022-10-16T01:06:16;8.20;;;3.30;;
31073;SDS011;17730;53.552;9.940;2022-10-16T01:11:38;12.48;;;3.22;;
31073;SDS011;17730;53.552;9.940;2022-10-16T01:14:36;4.45;;;3.03;;
31073;SDS011;17730;53.552;9.940;2022-10-16T01:20:03;9.50;;;3.10;;
31073;SDS011;17730;53.552;9.940;2022-10-16T01:22:35;8.77;;;3.67;;
31073;SDS011;17730;53.552;9.940;2022-10-16T01:25:09;9.88;;;3.28;;
31073;SDS011;17730;53.552;9.940;2022-10-16T01:27:41;6.38;;;2.80;;
31073;SDS011;17730;53.552;9.940;2022-10-16T01:30:12;12.82;;;2.95;;
31073;SDS011;17730;53.552;9.940;2022-10-16T01:32:48;11.93;;;3.35;;
31073;SDS011;17730;53.552;9.940;2022-10-16T01:35:26;10.82;;;2.60;;
31073;SDS011;17730;53.552;9.940;2022-10-16T01:38:01;8.15;;;3.40;;
31073;SDS011;17730;53.552;9.940;2022-10-16T01:40:28;7.63;;;2.65;;
31073;SDS011;17730;53.552;9.940;2022-10-16T01:43:17;6.00;;;3.22;;
31073;SDS011;17730;53.552;9.940;2022-10-16T01:45:46;12.95;;;3.83;;
31073;SDS011;17730;53.552;9.940;2022-10-16T01:48:13;8.82;;;3.40;;
31073;SDS011;17730;53.552;9.940;2022-10-16T01:50:43;8.60;;;2.88;;
31073;SDS011;17730;53.552;9.940;2022-10-16T01:53:13;8.50;;;2.90;;
31073;SDS011;17730;53.552;9.940;2022-10-16T01:55:42;11.43;;;3.22;;
31073;SDS011;17730;53.552;9.940;2022-10-16T01:58:11;4.93;;;2.47;;
31073;SDS011;17730;53.552;9.940;2022-10-16T02:00:39;6.97;;;2.83;;
31073;SDS011;17730;53.552;9.940;2022-10-16T02:03:08;15.10;;;3.58;;
31073;SDS011;17730;53.552;9.940;2022-10-16T02:05:39;5.47;;;2.90;;
31073;SDS011;17730;53.552;9.940;2022-10-16T02:08:07;5.22;;;3.00;;
31073;SDS011;17730;53.552;9.940;2022-10-16T02:10:34;11.00;;;3.78;;
31073;SDS011;17730;53.552;9.940;2022-10-16T02:13:03;7.88;;;3.03;;
31073;SDS011;17730;53.552;9.940;2022-10-16T02:15:40;8.35;;;2.67;;
31073;SDS011;17730;53.552;9.940;2022-10-16T02:18:06;12.07;;;3.38;;
31073;SDS011;17730;53.552;9.940;2022-10-16T02:20:37;7.25;;;2.45;;
31073;SDS011;17730;53.552;9.940;2022-10-16T02:23:15;8.43;;;3.53;;
31073;SDS011;17730;53.552;9.940;2022-10-16T02:25:49;6.90;;;3.13;;
31073;SDS011;17730;53.552;9.940;2022-10-16T02:28:18;6.60;;;2.70;;
31073;SDS011;17730;53.552;9.940;2022-10-16T02:30:49;10.85;;;3.22;;
31073;SDS011;17730;53.552;9.940;2022-10-16T02:33:20;7.25;;;2.40;;
31073;SDS011;17730;53.552;9.940;2022-10-16T02:35:48;9.85;;;2.55;;
31073;SDS011;17730;53.552;9.940;2022-10-16T02:38:16;7.18;;;3.08;;
31073;SDS011;17730;53.552;9.940;2022-10-16T02:40:42;10.38;;;2.78;;
31073;SDS011;17730;53.552;9.940;2022-10-16T02:43:10;9.07;;;2.50;;
31073;SDS011;17730;53.552;9.940;2022-10-16T02:45:37;9.60;;;2.38;;
31073;SDS011;17730;53.552;9.940;2022-10-16T02:48:03;4.75;;;2.58;;
31073;SDS011;17730;53.552;9.940;2022-10-16T02:50:28;9.13;;;2.70;;
31073;SDS011;17730;53.552;9.940;2022-10-16T02:52:54;7.75;;;2.88;;
31073;SDS011;17730;53.552;9.940;2022-10-16T02:55:20;6.25;;;2.50;;
31073;SDS011;17730;53.552;9.940;2022-10-16T02:57:45;10.98;;;3.47;;
31073;SDS011;17730;53.552;9.940;2022-10-16T03:00:13;5.63;;;2.47;;
31073;SDS011;17730;53.552;9.940;2022-10-16T03:02:40;6.20;;;2.67;;
31073;SDS011;17730;53.552;9.940;2022-10-16T03:05:06;7.55;;;2.72;;
31073;SDS011;17730;53.552;9.940;2022-10-16T03:07:32;10.73;;;2.75;;
31073;SDS011;17730;53.552;9.940;2022-10-16T03:09:57;6.22;;;2.15;;
31073;SDS011;17730;53.552;9.940;2022-10-16T03:12:25;6.43;;;2.90;;
31073;SDS011;17730;53.552;9.940;2022-10-16T03:14:52;4.15;;;2.53;;
31073;SDS011;17730;53.552;9.940;2022-10-16T03:17:18;7.13;;;2.17;;
31073;SDS011;17730;53.552;9.940;2022-10-16T03:19:43;5.70;;;2.25;;
31073;SDS011;17730;53.552;9.940;2022-10-16T03:22:09;7.03;;;2.30;;
31073;SDS011;17730;53.552;9.940;2022-10-16T03:24:34;5.95;;;2.30;;
31073;SDS011;17730;53.552;9.940;2022-10-16T03:27:00;5.88;;;2.33;;
31073;SDS011;17730;53.552;9.940;2022-10-16T03:29:26;8.02;;;2.00;;
31073;SDS011;17730;53.552;9.940;2022-10-16T03:31:54;10.82;;;2.20;;
31073;SDS011;17730;53.552;9.940;2022-10-16T03:34:20;5.20;;;2.55;;
31073;SDS011;17730;53.552;9.940;2022-10-16T03:36:46;6.95;;;2.20;;
31073;SDS011;17730;53.552;9.940;2022-10-16T03:39:11;8.70;;;2.78;;
31073;SDS011;17730;53.552;9.940;2022-10-16T03:41:37;9.23;;;2.40;;
31073;SDS011;17730;53.552;9.940;2022-10-16T03:44:03;4.68;;;2.38;;
31073;SDS011;17730;53.552;9.940;2022-10-16T03:46:28;8.75;;;2.00;;
31073;SDS011;17730;53.552;9.940;2022-10-16T03:48:54;5.63;;;2.25;;
31073;SDS011;17730;53.552;9.940;2022-10-16T03:51:20;3.92;;;2.13;;
31073;SDS011;17730;53.552;9.940;2022-10-16T03:53:46;8.75;;;2.00;;
31073;SDS011;17730;53.552;9.940;2022-10-16T03:56:11;6.95;;;2.50;;
31073;SDS011;17730;53.552;9.940;2022-10-16T03:58:37;9.05;;;2.30;;
31073;SDS011;17730;53.552;9.940;2022-10-16T04:01:03;8.30;;;1.92;;
31073;SDS011;17730;53.552;9.940;2022-10-16T04:03:28;6.25;;;2.33;;
31073;SDS011;17730;53.552;9.940;2022-10-16T04:05:54;8.40;;;2.63;;
31073;SDS011;17730;53.552;9.940;2022-10-16T04:08:20;10.80;;;2.92;;
31073;SDS011;17730;53.552;9.940;2022-10-16T04:10:46;8.07;;;2.38;;
31073;SDS011;17730;53.552;9.940;2022-10-16T04:13:12;5.85;;;2.22;;
31073;SDS011;17730;53.552;9.940;2022-10-16T04:15:38;6.03;;;2.90;;
31073;SDS011;17730;53.552;9.940;2022-10-16T04:18:04;16.95;;;2.67;;
31073;SDS011;17730;53.552;9.940;2022-10-16T04:20:30;6.88;;;2.05;;
31073;SDS011;17730;53.552;9.940;2022-10-16T04:22:56;6.20;;;2.55;;
31073;SDS011;17730;53.552;9.940;2022-10-16T04:25:22;5.10;;;2.30;;
31073;SDS011;17730;53.552;9.940;2022-10-16T04:27:48;12.07;;;2.17;;
31073;SDS011;17730;53.552;9.940;2022-10-16T04:30:13;7.63;;;2.10;;
31073;SDS011;17730;53.552;9.940;2022-10-16T04:32:39;6.82;;;2.70;;
31073;SDS011;17730;53.552;9.940;2022-10-16T04:35:06;6.55;;;2.25;;
31073;SDS011;17730;53.552;9.940;2022-10-16T04:37:32;5.43;;;2.50;;
31073;SDS011;17730;53.552;9.940;2022-10-16T04:39:58;5.82;;;2.60;;
31073;SDS011;17730;53.552;9.940;2022-10-16T04:42:24;7.78;;;2.03;;
31073;SDS011;17730;53.552;9.940;2022-10-16T04:44:49;5.00;;;2.03;;
31073;SDS011;17730;53.552;9.940;2022-10-16T04:47:15;6.35;;;2.58;;
31073;SDS011;17730;53.552;9.940;2022-10-16T04:49:41;4.47;;;2.30;;
31073;SDS011;17730;53.552;9.940;2022-10-16T04:52:06;10.10;;;2.80;;
31073;SDS011;17730;53.552;9.940;2022-10-16T04:54:34;5.88;;;2.53;;
31073;SDS011;17730;53.552;9.940;2022-10-16T04:56:59;9.05;;;3.25;;
31073;SDS011;17730;53.552;9.940;2022-10-16T04:59:25;10.32;;;3.30;;
31073;SDS011;17730;53.552;9.940;2022-10-16T05:01:50;9.30;;;3.25;;
31073;SDS011;17730;53.552;9.940;2022-10-16T05:04:16;8.90;;;3.30;;
31073;SDS011;17730;53.552;9.940;2022-10-16T05:06:42;14.95;;;3.97;;
31073;SDS011;17730;53.552;9.940;2022-10-16T05:09:08;8.60;;;3.90;;
31073;SDS011;17730;53.552;9.940;2022-10-16T05:11:34;12.32;;;4.53;;
31073;SDS011;17730;53.552;9.940;2022-10-16T05:14:00;9.93;;;3.78;;
31073;SDS011;17730;53.552;9.940;2022-10-16T05:16:25;13.95;;;4.85;;
31073;SDS011;17730;53.552;9.940;2022-10-16T05:18:51;13.82;;;3.88;;
31073;SDS011;17730;53.552;9.940;2022-10-16T05:21:18;9.85;;;4.80;;
31073;SDS011;17730;53.552;9.940;2022-10-16T05:23:43;11.57;;;3.85;;
31073;SDS011;17730;53.552;9.940;2022-10-16T05:26:09;12.35;;;3.53;;
31073;SDS011;17730;53.552;9.940;2022-10-16T05:28:35;14.75;;;4.20;;
31073;SDS011;17730;53.552;9.940;2022-10-16T05:31:04;11.73;;;4.07;;
31073;SDS011;17730;53.552;9.940;2022-10-16T05:33:31;8.05;;;3.75;;
31073;SDS011;17730;53.552;9.940;2022-10-16T05:35:56;16.05;;;3.58;;
31073;SDS011;17730;53.552;9.940;2022-10-16T05:38:25;6.85;;;3.35;;
31073;SDS011;17730;53.552;9.940;2022-10-16T05:40:51;10.18;;;3.45;;
31073;SDS011;17730;53.552;9.940;2022-10-16T05:43:17;12.55;;;2.88;;
31073;SDS011;17730;53.552;9.940;2022-10-16T05:45:43;13.48;;;2.92;;
31073;SDS011;17730;53.552;9.940;2022-10-16T05:48:09;6.72;;;2.97;;
31073;SDS011;17730;53.552;9.940;2022-10-16T05:50:34;5.18;;;2.22;;
31073;SDS011;17730;53.552;9.940;2022-10-16T05:53:00;7.15;;;2.45;;
31073;SDS011;17730;53.552;9.940;2022-10-16T05:55:25;9.65;;;2.60;;
31073;SDS011;17730;53.552;9.940;2022-10-16T05:57:53;5.55;;;2.53;;
31073;SDS011;17730;53.552;9.940;2022-10-16T06:00:19;7.03;;;2.78;;
31073;SDS011;17730;53.552;9.940;2022-10-16T06:02:45;7.43;;;3.00;;
31073;SDS011;17730;53.552;9.940;2022-10-16T06:05:11;11.60;;;2.90;;
31073;SDS011;17730;53.552;9.940;2022-10-16T06:07:36;4.90;;;2.50;;
31073;SDS011;17730;53.552;9.940;2022-10-16T06:10:02;10.70;;;3.58;;
31073;SDS011;17730;53.552;9.940;2022-10-16T06:12:29;7.78;;;2.53;;
31073;SDS011;17730;53.552;9.940;2022-10-16T06:14:54;7.80;;;2.20;;
31073;SDS011;17730;53.552;9.940;2022-10-16T06:17:20;5.78;;;2.20;;
31073;SDS011;17730;53.552;9.940;2022-10-16T06:19:46;10.73;;;2.60;;
31073;SDS011;17730;53.552;9.940;2022-10-16T06:22:11;11.73;;;3.53;;
31073;SDS011;17730;53.552;9.940;2022-10-16T06:24:37;7.00;;;2.45;;
31073;SDS011;17730;53.552;9.940;2022-10-16T06:27:03;5.57;;;2.88;;
31073;SDS011;17730;53.552;9.940;2022-10-16T06:29:29;7.13;;;2.72;;
31073;SDS011;17730;53.552;9.940;2022-10-16T06:31:55;9.15;;;2.83;;
31073;SDS011;17730;53.552;9.940;2022-10-16T06:34:20;8.18;;;2.65;;
31073;SDS011;17730;53.552;9.940;2022-10-16T06:36:46;8.00;;;2.88;;
31073;SDS011;17730;53.552;9.940;2022-10-16T06:39:12;6.68;;;2.72;;
31073;SDS011;17730;53.552;9.940;2022-10-16T06:41:37;12.32;;;3.20;;
31073;SDS011;17730;53.552;9.940;2022-10-16T06:44:06;4.50;;;2.90;;
31073;SDS011;17730;53.552;9.940;2022-10-16T06:46:35;10.65;;;2.97;;
31073;SDS011;17730;53.552;9.940;2022-10-16T06:49:01;9.07;;;2.60;;
31073;SDS011;17730;53.552;9.940;2022-10-16T06:51:26;13.25;;;3.78;;
31073;SDS011;17730;53.552;9.940;2022-10-16T06:53:53;7.45;;;2.90;;
31073;SDS011;17730;53.552;9.940;2022-10-16T06:56:22;6.57;;;3.17;;
31073;SDS011;17730;53.552;9.940;2022-10-16T06:58:52;12.05;;;3.22;;
31073;SDS011;17730;53.552;9.940;2022-10-16T07:01:19;9.40;;;3.25;;
31073;SDS011;17730;53.552;9.940;2022-10-16T07:03:47;7.18;;;3.50;;
31073;SDS011;17730;53.552;9.940;2022-10-16T07:06:14;7.72;;;3.78;;
31073;SDS011;17730;53.552;9.940;2022-10-16T07:08:43;7.97;;;3.15;;
31073;SDS011;17730;53.552;9.940;2022-10-16T07:11:12;6.28;;;3.10;;
31073;SDS011;17730;53.552;9.940;2022-10-16T07:13:40;7.20;;;3.15;;
31073;SDS011;17730;53.552;9.940;2022-10-16T07:16:11;3.92;;;2.85;;
31073;SDS011;17730;53.552;9.940;2022-10-16T07:18:44;9.68;;;3.72;;
31073;SDS011;17730;53.552;9.940;2022-10-16T07:21:15;9.65;;;3.00;;
31073;SDS011;17730;53.552;9.940;2022-10-16T07:23:42;9.30;;;3.63;;
31073;SDS011;17730;53.552;9.940;2022-10-16T07:26:08;6.53;;;3.40;;
31073;SDS011;17730;53.552;9.940;2022-10-16T07:28:35;10.15;;;3.70;;
31073;SDS011;17730;53.552;9.940;2022-10-16T07:31:02;9.25;;;3.45;;
31073;SDS011;17730;53.552;9.940;2022-10-16T07:33:29;8.13;;;3.30;;
31073;SDS011;17730;53.552;9.940;2022-10-16T07:35:56;6.40;;;3.70;;
31073;SDS011;17730;53.552;9.940;2022-10-16T07:38:21;9.10;;;3.90;;
31073;SDS011;17730;53.552;9.940;2022-10-16T07:40:47;8.88;;;3.70;;
31073;SDS011;17730;53.552;9.940;2022-10-16T07:43:13;8.85;;;3.58;;
31073;SDS011;17730;53.552;9.940;2022-10-16T07:45:46;7.88;;;3.50;;
31073;SDS011;17730;53.552;9.940;2022-10-16T07:48:14;10.88;;;3.92;;
31073;SDS011;17730;53.552;9.940;2022-10-16T07:50:40;4.85;;;3.08;;
31073;SDS011;17730;53.552;9.940;2022-10-16T07:53:06;7.38;;;3.70;;
31073;SDS011;17730;53.552;9.940;2022-10-16T07:55:32;6.97;;;3.42;;
31073;SDS011;17730;53.552;9.940;2022-10-16T07:57:57;7.03;;;3.53;;
31073;SDS011;17730;53.552;9.940;2022-10-16T08:00:23;9.98;;;3.92;;
31073;SDS011;17730;53.552;9.940;2022-10-16T08:02:48;11.60;;;4.00;;
31073;SDS011;17730;53.552;9.940;2022-10-16T08:05:14;8.85;;;3.97;;
31073;SDS011;17730;53.552;9.940;2022-10-16T08:07:40;7.88;;;3.60;;
31073;SDS011;17730;53.552;9.940;2022-10-16T08:10:06;10.25;;;4.30;;
31073;SDS011;17730;53.552;9.940;2022-10-16T08:12:35;6.43;;;3.97;;
31073;SDS011;17730;53.552;9.940;2022-10-16T08:15:01;7.85;;;3.72;;
31073;SDS011;17730;53.552;9.940;2022-10-16T08:17:26;9.05;;;3.67;;
31073;SDS011;17730;53.552;9.940;2022-10-16T08:19:52;7.43;;;3.53;;
31073;SDS011;17730;53.552;9.940;2022-10-16T08:22:18;6.55;;;3.30;;
31073;SDS011;17730;53.552;9.940;2022-10-16T08:24:43;10.77;;;3.80;;
31073;SDS011;17730;53.552;9.940;2022-10-16T08:27:09;7.95;;;3.30;;
31073;SDS011;17730;53.552;9.940;2022-10-16T08:29:35;6.75;;;3.20;;
31073;SDS011;17730;53.552;9.940;2022-10-16T08:32:00;6.70;;;3.35;;
31073;SDS011;17730;53.552;9.940;2022-10-16T08:34:28;10.90;;;3.42;;
31073;SDS011;17730;53.552;9.940;2022-10-16T08:36:54;5.88;;;3.38;;
31073;SDS011;17730;53.552;9.940;2022-10-16T08:39:20;5.65;;;3.05;;
31073;SDS011;17730;53.552;9.940;2022-10-16T08:46:50;7.97;;;2.95;;
31073;SDS011;17730;53.552;9.940;2022-10-16T08:51:44;9.65;;;3.30;;
31073;SDS011;17730;53.552;9.940;2022-10-16T08:56:49;7.35;;;3.53;;
31073;SDS011;17730;53.552;9.940;2022-10-16T08:59:14;9.15;;;3.53;;
31073;SDS011;17730;53.552;9.940;2022-10-16T09:01:44;8.68;;;2.65;;
31073;SDS011;17730;53.552;9.940;2022-10-16T09:04:22;6.03;;;2.33;;
31073;SDS011;17730;53.552;9.940;2022-10-16T09:10:06;5.18;;;2.40;;
31073;SDS011;17730;53.552;9.940;2022-10-16T09:12:30;6.28;;;2.30;;
31073;SDS011;17730;53.552;9.940;2022-10-16T09:17:49;6.45;;;2.50;;
31073;SDS011;17730;53.552;9.940;2022-10-16T09:20:29;8.65;;;2.65;;
31073;SDS011;17730;53.552;9.940;2022-10-16T09:25:29;10.05;;;2.63;;
31073;SDS011;17730;53.552;9.940;2022-10-16T09:27:56;5.93;;;1.95;;
31073;SDS011;17730;53.552;9.940;2022-10-16T09:30:22;5.78;;;2.05;;
31073;SDS011;17730;53.552;9.940;2022-10-16T09:32:51;4.43;;;2.22;;
31073;SDS011;17730;53.552;9.940;2022-10-16T09:35:31;5.28;;;1.83;;
31073;SDS011;17730;53.552;9.940;2022-10-16T09:38:00;6.20;;;1.98;;
31073;SDS011;17730;53.552;9.940;2022-10-16T09:40:34;7.00;;;2.50;;
31073;SDS011;17730;53.552;9.940;2022-10-16T09:45:54;6.15;;;1.80;;
31073;SDS011;17730;53.552;9.940;2022-10-16T09:48:26;5.25;;;1.60;;
31073;SDS011;17730;53.552;9.940;2022-10-16T09:53:24;7.88;;;1.58;;
31073;SDS011;17730;53.552;9.940;2022-10-16T09:56:02;6.90;;;1.77;;
31073;SDS011;17730;53.552;9.940;2022-10-16T09:58:30;5.32;;;2.58;;
31073;SDS011;17730;53.552;9.940;2022-10-16T10:00:57;4.72;;;2.20;;
31073;SDS011;17730;53.552;9.940;2022-10-16T10:05:59;5.15;;;1.88;;
31073;SDS011;17730;53.552;9.940;2022-10-16T10:08:29;6.63;;;1.90;;
31073;SDS011;17730;53.552;9.940;2022-10-16T10:10:54;6.50;;;1.95;;
31073;SDS011;17730;53.552;9.940;2022-10-16T10:13:20;7.75;;;1.90;;
31073;SDS011;17730;53.552;9.940;2022-10-16T10:15:48;5.03;;;1.70;;
31073;SDS011;17730;53.552;9.940;2022-10-16T10:18:17;9.75;;;1.95;;
31073;SDS011;17730;53.552;9.940;2022-10-16T10:20:45;6.90;;;1.90;;
31073;SDS011;17730;53.552;9.940;2022-10-16T10:23:18;8.65;;;1.83;;
31073;SDS011;17730;53.552;9.940;2022-10-16T10:36:19;8.20;;;2.20;;
31073;SDS011;17730;53.552;9.940;2022-10-16T10:39:01;8.63;;;2.08;;
31073;SDS011;17730;53.552;9.940;2022-10-16T10:57:39;4.72;;;1.40;;
31073;SDS011;17730;53.552;9.940;2022-10-16T11:07:57;4.95;;;1.48;;
31073;SDS011;17730;53.552;9.940;2022-10-16T11:15:41;4.93;;;1.77;;
31073;SDS011;17730;53.552;9.940;2022-10-16T11:18:15;8.75;;;1.70;;
31073;SDS011;17730;53.552;9.940;2022-10-16T11:20:46;4.05;;;1.33;;
31073;SDS011;17730;53.552;9.940;2022-10-16T11:25:58;6.30;;;1.60;;
31073;SDS011;17730;53.552;9.940;2022-10-16T11:28:32;4.25;;;1.10;;
31073;SDS011;17730;53.552;9.940;2022-10-16T11:31:07;5.20;;;1.17;;
31073;SDS011;17730;53.552;9.940;2022-10-16T11:33:47;4.60;;;1.65;;
31073;SDS011;17730;53.552;9.940;2022-10-16T11:36:19;3.95;;;1.48;;
31073;SDS011;17730;53.552;9.940;2022-10-16T11:41:45;4.82;;;1.60;;
31073;SDS011;17730;53.552;9.940;2022-10-16T11:47:12;3.78;;;1.20;;
31073;SDS011;17730;53.552;9.940;2022-10-16T11:49:49;4.38;;;1.25;;
31073;SDS011;17730;53.552;9.940;2022-10-16T11:55:16;3.33;;;1.13;;
31073;SDS011;17730;53.552;9.940;2022-10-16T11:57:52;3.95;;;1.20;;
31073;SDS011;17730;53.552;9.940;2022-10-16T12:00:31;5.85;;;1.40;;
31073;SDS011;17730;53.552;9.940;2022-10-16T12:09:04;5.55;;;1.60;;
31073;SDS011;17730;53.552;9.940;2022-10-16T12:11:35;6.57;;;1.55;;
31073;SDS011;17730;53.552;9.940;2022-10-16T12:16:37;7.72;;;1.80;;
31073;SDS011;17730;53.552;9.940;2022-10-16T12:19:12;6.82;;;1.67;;
31073;SDS011;17730;53.552;9.940;2022-10-16T12:21:39;9.85;;;1.60;;
31073;SDS011;17730;53.552;9.940;2022-10-16T12:24:05;6.70;;;1.85;;
31073;SDS011;17730;53.552;9.940;2022-10-16T12:26:44;5.57;;;1.85;;
31073;SDS011;17730;53.552;9.940;2022-10-16T12:29:13;11.50;;;2.60;;
31073;SDS011;17730;53.552;9.940;2022-10-16T12:31:45;8.48;;;1.85;;
31073;SDS011;17730;53.552;9.940;2022-10-16T12:34:14;5.57;;;1.48;;
31073;SDS011;17730;53.552;9.940;2022-10-16T12:36:46;6.53;;;1.77;;
31073;SDS011;17730;53.552;9.940;2022-10-16T12:39:20;12.90;;;1.80;;
31073;SDS011;17730;53.552;9.940;2022-10-16T12:42:03;5.07;;;1.50;;
31073;SDS011;17730;53.552;9.940;2022-10-16T12:44:32;6.37;;;2.37;;
31073;SDS011;17730;53.552;9.940;2022-10-16T12:46:59;7.82;;;1.50;;
31073;SDS011;17730;53.552;9.940;2022-10-16T12:51:55;7.03;;;2.20;;
31073;SDS011;17730;53.552;9.940;2022-10-16T12:54:30;7.95;;;2.22;;
31073;SDS011;17730;53.552;9.940;2022-10-16T13:02:20;8.40;;;1.80;;
31073;SDS011;17730;53.552;9.940;2022-10-16T13:29:52;8.35;;;1.60;;
31073;SDS011;17730;53.552;9.940;2022-10-16T13:32:20;6.63;;;1.92;;
31073;SDS011;17730;53.552;9.940;2022-10-16T13:34:47;5.90;;;1.20;;
31073;SDS011;17730;53.552;9.940;2022-10-16T13:37:20;8.95;;;1.67;;
31073;SDS011;17730;53.552;9.940;2022-10-16T13:39:48;4.25;;;1.63;;
31073;SDS011;17730;53.552;9.940;2022-10-16T13:44:53;4.43;;;1.83;;
31073;SDS011;17730;53.552;9.940;2022-10-16T13:47:20;8.93;;;1.33;;
31073;SDS011;17730;53.552;9.940;2022-10-16T13:49:58;7.55;;;1.42;;
31073;SDS011;17730;53.552;9.940;2022-10-16T13:52:43;13.18;;;2.22;;
31073;SDS011;17730;53.552;9.940;2022-10-16T13:55:12;5.85;;;2.20;;
31073;SDS011;17730;53.552;9.940;2022-10-16T13:57:40;6.43;;;1.83;;
31073;SDS011;17730;53.552;9.940;2022-10-16T14:00:22;7.05;;;2.00;;
31073;SDS011;17730;53.552;9.940;2022-10-16T14:03:04;5.80;;;1.33;;
31073;SDS011;17730;53.552;9.940;2022-10-16T14:05:41;4.57;;;1.40;;
31073;SDS011;17730;53.552;9.940;2022-10-16T14:08:12;6.60;;;1.35;;
31073;SDS011;17730;53.552;9.940;2022-10-16T14:10:38;4.03;;;1.52;;
31073;SDS011;17730;53.552;9.940;2022-10-16T14:13:05;8.30;;;2.35;;
31073;SDS011;17730;53.552;9.940;2022-10-16T14:15:34;11.80;;;2.25;;
31073;SDS011;17730;53.552;9.940;2022-10-16T14:18:01;5.85;;;1.90;;
31073;SDS011;17730;53.552;9.940;2022-10-16T14:20:32;6.55;;;1.90;;
31073;SDS011;17730;53.552;9.940;2022-10-16T14:23:41;8.73;;;2.38;;
31073;SDS011;17730;53.552;9.940;2022-10-16T14:28:38;8.38;;;1.95;;
31073;SDS011;17730;53.552;9.940;2022-10-16T14:31:27;5.80;;;1.83;;
31073;SDS011;17730;53.552;9.940;2022-10-16T14:33:53;10.43;;;3.08;;
31073;SDS011;17730;53.552;9.940;2022-10-16T14:36:19;8.60;;;2.08;;
31073;SDS011;17730;53.552;9.940;2022-10-16T14:38:54;5.40;;;1.75;;
31073;SDS011;17730;53.552;9.940;2022-10-16T14:41:24;8.95;;;2.35;;
31073;SDS011;17730;53.552;9.940;2022-10-16T14:43:51;7.43;;;2.28;;
31073;SDS011;17730;53.552;9.940;2022-10-16T14:46:20;6.30;;;1.85;;
31073;SDS011;17730;53.552;9.940;2022-10-16T14:48:51;10.30;;;2.28;;
31073;SDS011;17730;53.552;9.940;2022-10-16T14:51:25;6.78;;;2.42;;
31073;SDS011;17730;53.552;9.940;2022-10-16T14:53:51;12.57;;;4.13;;
31073;SDS011;17730;53.552;9.940;2022-10-16T14:56:18;13.32;;;3.60;;
31073;SDS011;17730;53.552;9.940;2022-10-16T14:58:46;10.48;;;3.22;;
31073;SDS011;17730;53.552;9.940;2022-10-16T15:01:12;8.82;;;2.55;;
31073;SDS011;17730;53.552;9.940;2022-10-16T15:03:38;8.90;;;1.98;;
31073;SDS011;17730;53.552;9.940;2022-10-16T15:06:04;10.48;;;2.63;;
31073;SDS011;17730;53.552;9.940;2022-10-16T15:08:36;17.70;;;5.72;;
31073;SDS011;17730;53.552;9.940;2022-10-16T15:11:02;11.93;;;2.45;;
31073;SDS011;17730;53.552;9.940;2022-10-16T15:13:27;9.57;;;1.67;;
31073;SDS011;17730;53.552;9.940;2022-10-16T15:15:53;10.98;;;2.05;;
31073;SDS011;17730;53.552;9.940;2022-10-16T15:18:19;8.98;;;1.38;;
31073;SDS011;17730;53.552;9.940;2022-10-16T15:20:47;4.13;;;1.52;;
31073;SDS011;17730;53.552;9.940;2022-10-16T15:23:17;6.53;;;1.90;;
31073;SDS011;17730;53.552;9.940;2022-10-16T15:25:48;7.93;;;1.33;;
31073;SDS011;17730;53.552;9.940;2022-10-16T15:28:14;10.63;;;2.25;;
31073;SDS011;17730;53.552;9.940;2022-10-16T15:30:41;7.47;;;2.20;;
31073;SDS011;17730;53.552;9.940;2022-10-16T15:33:11;7.10;;;2.08;;
31073;SDS011;17730;53.552;9.940;2022-10-16T15:35:39;8.05;;;2.58;;
31073;SDS011;17730;53.552;9.940;2022-10-16T15:38:05;17.38;;;4.03;;
31073;SDS011;17730;53.552;9.940;2022-10-16T15:40:30;9.07;;;2.25;;
31073;SDS011;17730;53.552;9.940;2022-10-16T15:42:56;7.13;;;1.88;;
31073;SDS011;17730;53.552;9.940;2022-10-16T15:45:22;13.88;;;1.80;;
31073;SDS011;17730;53.552;9.940;2022-10-16T15:47:47;5.93;;;1.80;;
31073;SDS011;17730;53.552;9.940;2022-10-16T15:50:14;6.75;;;2.13;;
31073;SDS011;17730;53.552;9.940;2022-10-16T15:52:40;12.73;;;4.18;;
31073;SDS011;17730;53.552;9.940;2022-10-16T15:55:07;11.35;;;3.22;;
31073;SDS011;17730;53.552;9.940;2022-10-16T15:57:34;15.48;;;3.78;;
31073;SDS011;17730;53.552;9.940;2022-10-16T16:00:03;10.93;;;2.53;;
31073;SDS011;17730;53.552;9.940;2022-10-16T16:02:30;16.58;;;2.60;;
31073;SDS011;17730;53.552;9.940;2022-10-16T16:04:56;11.10;;;2.60;;
31073;SDS011;17730;53.552;9.940;2022-10-16T16:07:22;8.15;;;2.03;;
31073;SDS011;17730;53.552;9.940;2022-10-16T16:09:47;13.27;;;3.05;;
31073;SDS011;17730;53.552;9.940;2022-10-16T16:12:13;9.70;;;3.28;;
31073;SDS011;17730;53.552;9.940;2022-10-16T16:14:39;10.55;;;3.05;;
31073;SDS011;17730;53.552;9.940;2022-10-16T16:17:04;6.97;;;2.58;;
31073;SDS011;17730;53.552;9.940;2022-10-16T16:19:30;14.90;;;3.88;;
31073;SDS011;17730;53.552;9.940;2022-10-16T16:21:56;15.70;;;2.67;;
31073;SDS011;17730;53.552;9.940;2022-10-16T16:24:22;10.23;;;4.00;;
31073;SDS011;17730;53.552;9.940;2022-10-16T16:26:48;14.57;;;4.53;;
31073;SDS011;17730;53.552;9.940;2022-10-16T16:29:14;10.23;;;2.92;;
31073;SDS011;17730;53.552;9.940;2022-10-16T16:31:40;17.13;;;5.38;;
31073;SDS011;17730;53.552;9.940;2022-10-16T16:34:07;12.02;;;3.95;;
31073;SDS011;17730;53.552;9.940;2022-10-16T16:36:33;10.75;;;2.33;;
31073;SDS011;17730;53.552;9.940;2022-10-16T16:38:59;11.52;;;3.03;;
31073;SDS011;17730;53.552;9.940;2022-10-16T16:41:26;11.43;;;2.22;;
31073;SDS011;17730;53.552;9.940;2022-10-16T16:43:53;12.48;;;4.10;;
31073;SDS011;17730;53.552;9.940;2022-10-16T16:46:20;11.48;;;2.85;;
31073;SDS011;17730;53.552;9.940;2022-10-16T16:48:46;10.07;;;3.05;;
31073;SDS011;17730;53.552;9.940;2022-10-16T16:51:15;16.95;;;4.22;;
31073;SDS011;17730;53.552;9.940;2022-10-16T16:53:48;11.07;;;2.63;;
31073;SDS011;17730;53.552;9.940;2022-10-16T16:56:15;10.15;;;3.30;;
31073;SDS011;17730;53.552;9.940;2022-10-16T16:58:41;15.43;;;3.38;;
31073;SDS011;17730;53.552;9.940;2022-10-16T17:01:09;16.95;;;5.15;;
31073;SDS011;17730;53.552;9.940;2022-10-16T17:03:35;21.50;;;5.20;;
31073;SDS011;17730;53.552;9.940;2022-10-16T17:06:02;9.90;;;3.80;;